BJC weather

Rocky Mountain Metropolitan Airport
Denver, Colorado, United States

Public forecast

Using degrees Fahrenheit for public forecast. Weather courtesy of forecast.io.

METAR (pilot weather report)

Retrieved 2019/07/19 14:45 UTC (1 hour ago):

KBJC 191445Z 36005KT 40SM FEW200 30/00 A3001

TAF (pilot weather forecast)

Retrieved 2019/07/19 12:24 UTC (4 hours ago):

TAF KBJC 191122Z 1912/2012 23005KT P6SM FEW220 FM191400 VRB04KT P6SM FEW220 FM191700 03008KT P6SM FEW130 SCT220 FM192300 10008KT P6SM SCT120 BKN200 FM200200 VRB04KT P6SM FEW120 BKN200 FM200500 24008KT P6SM FEW150 SCT220 FM201000 30007KT P6SM SCT150 BKN200